createdAt,value
2023-02-03T00:02:14.744Z,4.70
2023-02-03T00:07:12.397Z,4.70
2023-02-03T00:12:07.685Z,4.60
2023-02-03T00:14:34.672Z,4.70
2023-02-03T00:17:01.629Z,4.70
2023-02-03T00:19:28.616Z,4.60
2023-02-03T00:21:56.267Z,4.60
2023-02-03T00:24:23.855Z,4.70
2023-02-03T00:26:50.831Z,4.70
2023-02-03T00:29:18.550Z,4.70
2023-02-03T00:31:45.919Z,4.70
2023-02-03T00:36:42.662Z,4.60
2023-02-03T00:41:37.388Z,4.60
2023-02-03T00:44:04.549Z,4.60
2023-02-03T00:46:31.509Z,4.60
2023-02-03T00:53:54.856Z,4.60
2023-02-03T00:58:50.736Z,4.60
2023-02-03T01:01:18.034Z,4.60
2023-02-03T01:06:18.465Z,4.60
2023-02-03T01:11:25.124Z,4.60
2023-02-03T01:16:24.280Z,4.60
2023-02-03T01:21:26.940Z,4.60
2023-02-03T01:23:54.708Z,4.60
2023-02-03T01:26:24.053Z,4.60
2023-02-03T01:29:00.308Z,4.70
2023-02-03T01:31:34.834Z,4.70
2023-02-03T01:36:33.802Z,4.70
2023-02-03T01:39:04.126Z,4.70
2023-02-03T01:41:36.746Z,4.70
2023-02-03T01:44:43.683Z,4.60
2023-02-03T01:47:48.637Z,4.70
2023-02-03T01:50:22.779Z,4.70
2023-02-03T01:52:57.541Z,4.70
2023-02-03T01:55:39.069Z,4.80
2023-02-03T01:58:26.413Z,4.80
2023-02-03T02:00:57.275Z,4.80
2023-02-03T02:03:39.489Z,4.80
2023-02-03T02:06:11.208Z,4.80
2023-02-03T02:08:46.388Z,4.80
2023-02-03T02:11:13.744Z,4.80
2023-02-03T02:13:44.202Z,4.90
2023-02-03T02:20:17.147Z,4.80
2023-02-03T02:23:25.062Z,4.90
2023-02-03T02:26:44.299Z,5.00
2023-02-03T02:30:11.025Z,4.90
2023-02-03T02:33:45.407Z,4.90
2023-02-03T02:37:02.802Z,4.90
2023-02-03T02:39:58.994Z,5.00
2023-02-03T02:43:10.641Z,5.00
2023-02-03T02:45:48.766Z,5.00
2023-02-03T02:48:33.326Z,5.00
2023-02-03T02:51:05.312Z,5.00
2023-02-03T02:53:41.200Z,5.10
2023-02-03T02:56:15.682Z,5.00
2023-02-03T02:58:48.799Z,5.10
2023-02-03T03:01:17.098Z,5.10
2023-02-03T03:03:45.183Z,5.10
2023-02-03T03:06:21.659Z,5.00
2023-02-03T03:09:00.037Z,5.00
2023-02-03T03:11:33.572Z,5.00
2023-02-03T03:14:02.992Z,5.10
2023-02-03T03:16:37.746Z,5.00
2023-02-03T03:19:22.085Z,5.10
2023-02-03T03:22:00.356Z,5.10
2023-02-03T03:24:34.222Z,5.10
2023-02-03T03:30:03.185Z,5.10
2023-02-03T03:32:33.001Z,5.10
2023-02-03T03:35:04.069Z,5.00
2023-02-03T03:37:57.712Z,5.10
2023-02-03T03:40:38.772Z,5.00
2023-02-03T03:43:23.152Z,5.00
2023-02-03T03:46:11.527Z,5.00
2023-02-03T03:49:07.351Z,5.00
2023-02-03T03:51:55.434Z,5.00
2023-02-03T03:54:26.236Z,5.00
2023-02-03T03:57:18.521Z,5.00
2023-02-03T03:59:49.593Z,5.10
2023-02-03T04:02:19.969Z,5.00
2023-02-03T04:04:48.539Z,5.00
2023-02-03T04:07:16.292Z,5.00
2023-02-03T04:09:43.390Z,5.10
2023-02-03T04:12:24.089Z,5.00
2023-02-03T04:14:51.124Z,5.10
2023-02-03T04:17:19.981Z,5.00
2023-02-03T04:19:48.931Z,5.00
2023-02-03T04:22:15.881Z,5.10
2023-02-03T04:27:10.894Z,5.10
2023-02-03T04:29:37.893Z,5.10
2023-02-03T04:32:05.227Z,5.10
2023-02-03T04:34:32.272Z,5.10
2023-02-03T04:36:59.200Z,5.10
2023-02-03T04:41:53.640Z,5.10
2023-02-03T04:46:48.006Z,5.10
2023-02-03T04:54:13.767Z,5.10
2023-02-03T04:56:41.257Z,5.10
2023-02-03T04:59:08.893Z,5.10
2023-02-03T05:01:35.847Z,5.20
2023-02-03T05:04:02.865Z,5.10
2023-02-03T05:06:31.900Z,5.10
2023-02-03T05:11:27.008Z,5.20
2023-02-03T05:13:54.686Z,5.20
2023-02-03T05:18:49.291Z,5.10
2023-02-03T05:21:16.411Z,5.20
2023-02-03T05:23:43.489Z,5.20
2023-02-03T05:26:11.771Z,5.20
2023-02-03T05:28:38.884Z,5.20
2023-02-03T05:31:06.101Z,5.20
2023-02-03T05:33:33.281Z,5.20
2023-02-03T05:36:00.252Z,5.20
2023-02-03T05:38:27.371Z,5.20
2023-02-03T05:41:13.040Z,5.30
2023-02-03T05:43:40.071Z,5.30
2023-02-03T05:46:08.018Z,5.30
2023-02-03T05:48:35.405Z,5.20
2023-02-03T05:53:29.977Z,5.40
2023-02-03T05:58:24.340Z,5.30
2023-02-03T06:00:52.444Z,5.30
2023-02-03T06:03:19.590Z,5.30
2023-02-03T06:05:46.634Z,5.30
2023-02-03T06:08:13.628Z,5.30
2023-02-03T06:10:40.636Z,5.30
2023-02-03T06:13:50.124Z,5.40
2023-02-03T06:17:05.422Z,5.30
2023-02-03T06:19:58.516Z,5.30
2023-02-03T06:24:53.248Z,5.30
2023-02-03T06:27:20.235Z,5.30
2023-02-03T06:29:47.247Z,5.30
2023-02-03T06:37:09.588Z,5.20
2023-02-03T06:39:36.578Z,5.30
2023-02-03T06:47:04.588Z,5.40
2023-02-03T06:52:12.184Z,4.20
2023-02-03T07:07:00.114Z,5.30
2023-02-03T07:09:27.137Z,5.40
2023-02-03T07:26:39.080Z,5.40
2023-02-03T07:36:30.491Z,5.50
2023-02-03T07:41:25.125Z,5.50
2023-02-03T07:43:52.282Z,5.40
2023-02-03T07:53:42.165Z,5.50
2023-02-03T07:56:09.243Z,5.50
2023-02-03T07:58:36.285Z,5.50
2023-02-03T08:01:15.086Z,5.50
2023-02-03T08:03:43.042Z,5.40
2023-02-03T08:06:10.918Z,5.40
2023-02-03T08:11:05.474Z,5.50
2023-02-03T08:13:32.775Z,5.50
2023-02-03T08:15:59.864Z,5.50
2023-02-03T08:18:26.945Z,5.50
2023-02-03T08:20:53.923Z,5.50
2023-02-03T08:25:52.989Z,5.50
2023-02-03T08:28:20.622Z,5.50
2023-02-03T08:33:15.286Z,5.50
2023-02-03T08:35:49.068Z,5.50
2023-02-03T08:38:16.987Z,5.50
2023-02-03T08:40:44.080Z,5.50
2023-02-03T08:43:11.257Z,5.50
2023-02-03T08:45:40.627Z,5.50
2023-02-03T08:53:02.703Z,5.50
2023-02-03T08:55:29.763Z,5.50
2023-02-03T09:03:42.086Z,5.50
2023-02-03T09:06:16.500Z,5.50
2023-02-03T09:08:46.132Z,5.60
2023-02-03T09:11:17.278Z,5.60
2023-02-03T09:13:48.633Z,7.20
2023-02-03T09:16:19.659Z,5.60
2023-02-03T09:18:47.441Z,5.70
2023-02-03T09:21:31.722Z,5.70
2023-02-03T09:24:04.697Z,5.70
2023-02-03T09:26:31.662Z,5.70
2023-02-03T09:28:58.624Z,5.80
2023-02-03T09:31:25.770Z,5.80
2023-02-03T09:33:52.767Z,5.80
2023-02-03T09:36:19.808Z,6.00
2023-02-03T09:41:52.024Z,5.90
2023-02-03T09:44:33.669Z,6.00
2023-02-03T09:47:18.770Z,5.90
2023-02-03T09:49:52.328Z,6.00
2023-02-03T09:52:25.936Z,6.00
2023-02-03T09:55:28.787Z,6.00
2023-02-03T09:58:13.288Z,6.00
2023-02-03T10:00:46.884Z,6.00
2023-02-03T10:03:59.666Z,6.00
2023-02-03T10:06:46.461Z,6.10
2023-02-03T10:09:49.305Z,6.10
2023-02-03T10:13:06.732Z,6.20
2023-02-03T10:16:07.911Z,6.20
2023-02-03T10:18:54.250Z,6.30
2023-02-03T10:21:42.817Z,6.30
2023-02-03T10:24:20.383Z,6.40
2023-02-03T10:26:47.652Z,6.40
2023-02-03T10:29:32.808Z,6.40
2023-02-03T10:34:27.941Z,6.50
2023-02-03T10:37:27.088Z,6.40
2023-02-03T10:39:58.583Z,6.50
2023-02-03T10:42:49.546Z,6.50
2023-02-03T10:45:16.778Z,6.50
2023-02-03T10:47:56.115Z,6.50
2023-02-03T10:51:17.060Z,6.50
2023-02-03T10:53:39.880Z,6.50
2023-02-03T10:56:18.079Z,6.50
2023-02-03T10:59:30.545Z,6.50
2023-02-03T11:01:57.972Z,6.60
2023-02-03T11:04:32.781Z,6.60
2023-02-03T11:09:42.971Z,6.60
2023-02-03T11:12:17.577Z,6.60
2023-02-03T11:14:53.934Z,6.60
2023-02-03T11:17:27.595Z,6.60
2023-02-03T11:20:13.541Z,6.60
2023-02-03T11:22:43.603Z,6.60
2023-02-03T11:25:32.443Z,6.60
2023-02-03T11:28:07.561Z,6.50
2023-02-03T11:30:34.681Z,6.60
2023-02-03T11:33:03.106Z,6.50
2023-02-03T11:35:33.447Z,6.50
2023-02-03T11:38:02.336Z,6.50
2023-02-03T11:40:31.214Z,6.50
2023-02-03T11:45:51.698Z,6.50
2023-02-03T11:48:51.119Z,6.50
2023-02-03T11:51:23.594Z,6.60
2023-02-03T11:54:19.120Z,6.60
2023-02-03T11:57:26.893Z,6.60
2023-02-03T12:00:03.328Z,6.60
2023-02-03T12:03:18.595Z,6.50
2023-02-03T12:06:32.769Z,6.60
2023-02-03T12:10:07.829Z,6.60
2023-02-03T12:13:39.708Z,6.60
2023-02-03T12:16:42.571Z,6.60
2023-02-03T12:19:41.988Z,6.60
2023-02-03T12:22:39.282Z,6.70
2023-02-03T12:25:47.568Z,7.00
2023-02-03T12:28:43.893Z,6.70
2023-02-03T12:31:27.322Z,6.70
2023-02-03T12:34:08.818Z,6.70
2023-02-03T12:36:45.220Z,6.80
2023-02-03T12:39:49.524Z,6.70
2023-02-03T12:42:39.454Z,6.80
2023-02-03T12:45:19.167Z,6.80
2023-02-03T12:48:04.659Z,6.80
2023-02-03T12:50:59.309Z,6.80
2023-02-03T12:53:36.801Z,6.80
2023-02-03T12:56:18.381Z,6.80
2023-02-03T12:59:00.785Z,6.80
2023-02-03T13:01:50.551Z,6.80
2023-02-03T13:04:59.521Z,6.80
2023-02-03T13:07:59.859Z,6.80
2023-02-03T13:10:50.287Z,6.80
2023-02-03T13:13:38.093Z,6.70
2023-02-03T13:16:10.565Z,6.70
2023-02-03T13:18:49.528Z,6.70
2023-02-03T13:21:16.627Z,6.70
2023-02-03T13:23:44.574Z,6.70
2023-02-03T13:26:33.757Z,6.60
2023-02-03T13:29:31.346Z,6.60
2023-02-03T13:32:14.860Z,6.60
2023-02-03T13:35:34.290Z,6.60
2023-02-03T13:38:39.652Z,6.60
2023-02-03T13:41:23.046Z,6.60
2023-02-03T13:43:53.314Z,6.60
2023-02-03T13:46:35.701Z,6.60
2023-02-03T13:49:07.029Z,6.50
2023-02-03T13:51:43.439Z,6.50
2023-02-03T13:54:37.226Z,6.60
2023-02-03T13:57:22.403Z,6.50
2023-02-03T14:02:19.866Z,6.60
2023-02-03T14:07:39.911Z,6.60
2023-02-03T14:10:16.128Z,6.60
2023-02-03T14:12:51.907Z,6.60
2023-02-03T14:17:58.461Z,6.50
2023-02-03T14:20:25.387Z,6.50
2023-02-03T14:23:11.843Z,6.50
2023-02-03T14:26:19.586Z,6.60
2023-02-03T14:28:49.117Z,6.50
2023-02-03T14:31:24.998Z,6.50
2023-02-03T14:36:52.958Z,6.40
2023-02-03T14:39:19.978Z,6.30
2023-02-03T14:42:19.565Z,6.30
2023-02-03T14:45:19.723Z,6.20
2023-02-03T14:48:47.517Z,6.20
2023-02-03T14:51:57.783Z,6.20
2023-02-03T14:57:43.646Z,6.20
2023-02-03T15:00:19.898Z,6.10
2023-02-03T15:03:10.235Z,6.10
2023-02-03T15:05:48.041Z,6.00
2023-02-03T15:08:43.984Z,6.10
2023-02-03T15:11:32.969Z,6.00
2023-02-03T15:14:28.458Z,6.10
2023-02-03T15:17:03.412Z,6.00
2023-02-03T15:19:38.931Z,6.00
2023-02-03T15:22:26.513Z,6.00
2023-02-03T15:25:00.272Z,6.10
2023-02-03T15:27:31.941Z,6.10
2023-02-03T15:30:16.653Z,6.10
2023-02-03T15:33:02.751Z,6.10
2023-02-03T15:35:36.442Z,6.10
2023-02-03T15:38:13.728Z,6.10
2023-02-03T15:40:57.746Z,6.00
2023-02-03T15:43:41.738Z,6.10
2023-02-03T15:46:45.496Z,6.10
2023-02-03T15:49:33.363Z,6.10
2023-02-03T15:52:17.309Z,6.10
2023-02-03T15:54:55.947Z,6.10
2023-02-03T15:57:31.786Z,6.10
2023-02-03T16:00:09.782Z,6.10
2023-02-03T16:02:46.022Z,6.10
2023-02-03T16:05:28.366Z,6.10
2023-02-03T16:07:56.038Z,6.10
2023-02-03T16:10:33.633Z,6.10
2023-02-03T16:13:29.525Z,6.10
2023-02-03T16:16:21.216Z,6.10
2023-02-03T16:19:04.302Z,6.10
2023-02-03T16:21:49.638Z,6.10
2023-02-03T16:24:42.436Z,6.10
2023-02-03T16:27:28.008Z,6.10
2023-02-03T16:30:41.180Z,6.10
2023-02-03T16:33:35.976Z,6.00
2023-02-03T16:36:32.829Z,6.10
2023-02-03T16:39:30.883Z,6.00
2023-02-03T16:42:19.338Z,6.10
2023-02-03T16:45:05.093Z,6.10
2023-02-03T16:47:51.627Z,6.10
2023-02-03T16:50:41.890Z,6.10
2023-02-03T16:53:19.742Z,6.10
2023-02-03T16:55:48.755Z,6.10
2023-02-03T16:58:16.031Z,6.10
2023-02-03T17:00:47.158Z,6.10
2023-02-03T17:03:18.886Z,6.20
2023-02-03T17:05:48.364Z,6.20
2023-02-03T17:08:19.134Z,6.20
2023-02-03T17:10:47.960Z,6.20
2023-02-03T17:13:18.411Z,6.20
2023-02-03T17:15:55.203Z,6.20
2023-02-03T17:18:22.660Z,6.30
2023-02-03T17:25:49.820Z,6.30
2023-02-03T17:28:17.613Z,6.30
2023-02-03T17:30:44.950Z,6.30
2023-02-03T17:35:45.491Z,6.30
2023-02-03T17:38:14.840Z,6.40
2023-02-03T17:57:06.124Z,6.60
2023-02-03T17:59:35.399Z,6.60
2023-02-03T18:02:02.408Z,6.50
2023-02-03T18:04:29.518Z,6.50
2023-02-03T18:06:56.473Z,6.60
2023-02-03T18:09:23.468Z,6.60
2023-02-03T18:14:18.164Z,6.60
2023-02-03T18:19:15.745Z,6.70
2023-02-03T18:21:43.726Z,6.70
2023-02-03T18:24:13.604Z,6.60
2023-02-03T18:26:51.927Z,6.60
2023-02-03T18:31:47.497Z,6.60
2023-02-03T18:34:17.368Z,6.60
2023-02-03T18:36:45.606Z,6.60
2023-02-03T18:39:17.836Z,6.60
2023-02-03T18:41:44.897Z,6.60
2023-02-03T18:46:39.708Z,6.60
2023-02-03T18:49:09.317Z,6.60
2023-02-03T18:51:36.903Z,6.60
2023-02-03T18:54:04.622Z,6.60
2023-02-03T18:56:37.577Z,6.50
2023-02-03T18:59:09.916Z,6.50
2023-02-03T19:01:39.012Z,6.60
2023-02-03T19:04:06.659Z,6.50
2023-02-03T19:06:35.331Z,6.50
2023-02-03T19:09:05.255Z,6.50
2023-02-03T19:18:55.521Z,6.60
2023-02-03T19:23:50.008Z,6.60
2023-02-03T19:28:44.627Z,6.70
2023-02-03T19:31:15.596Z,6.70
2023-02-03T19:33:43.156Z,6.60
2023-02-03T19:36:11.623Z,6.70
2023-02-03T19:38:39.038Z,6.70
2023-02-03T19:41:07.676Z,6.70
2023-02-03T19:46:02.495Z,6.80
2023-02-03T19:48:29.663Z,6.80
2023-02-03T19:50:56.807Z,6.80
2023-02-03T19:53:24.273Z,6.80
2023-02-03T19:55:51.671Z,6.80
2023-02-03T19:58:19.095Z,6.90
2023-02-03T20:00:46.549Z,6.80
2023-02-03T20:03:19.924Z,6.80
2023-02-03T20:05:47.394Z,6.90
2023-02-03T20:08:16.535Z,6.90
2023-02-03T20:10:45.280Z,6.90
2023-02-03T20:13:13.624Z,6.80
2023-02-03T20:15:41.227Z,6.80
2023-02-03T20:20:37.026Z,6.80
2023-02-03T20:23:04.083Z,6.80
2023-02-03T20:30:29.937Z,6.70
2023-02-03T20:32:57.263Z,6.80
2023-02-03T20:37:53.710Z,6.80
2023-02-03T20:40:24.244Z,6.80
2023-02-03T20:42:52.911Z,6.70
2023-02-03T20:45:23.601Z,6.70
2023-02-03T20:47:51.224Z,6.70
2023-02-03T20:50:40.501Z,6.70
2023-02-03T20:53:25.343Z,6.70
2023-02-03T20:55:58.607Z,6.80
2023-02-03T20:58:32.349Z,6.80
2023-02-03T21:00:59.744Z,6.80
2023-02-03T21:03:45.698Z,6.70
2023-02-03T21:06:19.040Z,6.70
2023-02-03T21:08:48.080Z,6.70
2023-02-03T21:11:21.697Z,6.60
2023-02-03T21:13:49.843Z,6.60
2023-02-03T21:16:27.483Z,6.70
2023-02-03T21:19:00.210Z,6.70
2023-02-03T21:21:41.976Z,6.60
2023-02-03T21:24:59.065Z,6.60
2023-02-03T21:27:34.528Z,6.60
2023-02-03T21:30:32.993Z,6.60
2023-02-03T21:33:14.849Z,6.60
2023-02-03T21:35:41.968Z,6.50
2023-02-03T21:38:32.388Z,6.50
2023-02-03T21:41:01.208Z,6.50
2023-02-03T21:43:32.939Z,6.50
2023-02-03T21:46:01.575Z,6.50
2023-02-03T21:48:34.307Z,6.60
2023-02-03T21:51:36.313Z,6.60
2023-02-03T21:54:28.190Z,6.50
2023-02-03T21:56:55.493Z,6.40
2023-02-03T21:59:30.060Z,6.40
2023-02-03T22:01:58.379Z,6.40
2023-02-03T22:04:30.632Z,6.40
2023-02-03T22:06:57.693Z,6.30
2023-02-03T22:09:27.006Z,6.30
2023-02-03T22:11:54.055Z,6.40
2023-02-03T22:14:21.177Z,6.40
2023-02-03T22:16:48.586Z,6.30
2023-02-03T22:19:17.432Z,6.30
2023-02-03T22:21:44.900Z,6.30
2023-02-03T22:24:11.968Z,6.30
2023-02-03T22:26:38.972Z,6.30
2023-02-03T22:29:05.957Z,6.30
2023-02-03T22:31:33.349Z,6.20
2023-02-03T22:34:00.393Z,6.20
2023-02-03T22:36:27.613Z,6.20
2023-02-03T22:38:54.586Z,6.20
2023-02-03T22:41:21.642Z,6.20
2023-02-03T22:43:48.634Z,6.20
2023-02-03T22:46:15.706Z,6.20
2023-02-03T22:48:42.799Z,6.10
2023-02-03T22:51:09.852Z,6.10
2023-02-03T22:53:39.244Z,6.10
2023-02-03T22:56:06.614Z,6.10
2023-02-03T22:58:33.648Z,6.00
2023-02-03T23:01:00.686Z,6.00
2023-02-03T23:03:31.768Z,6.00
2023-02-03T23:05:59.291Z,6.00
2023-02-03T23:08:26.249Z,6.10
2023-02-03T23:10:53.356Z,5.90
2023-02-03T23:13:20.305Z,5.90
2023-02-03T23:15:47.350Z,5.90
2023-02-03T23:18:14.341Z,6.00
2023-02-03T23:23:08.824Z,5.80
2023-02-03T23:25:35.886Z,5.70
2023-02-03T23:32:58.298Z,5.80
2023-02-03T23:40:38.943Z,5.70
2023-02-03T23:43:05.967Z,5.60
2023-02-03T23:48:00.366Z,5.80
2023-02-03T23:50:27.404Z,5.80
2023-02-03T23:52:54.551Z,5.80
2023-02-03T23:55:21.862Z,5.80
2023-02-03T23:57:49.781Z,5.80
